sensor_id;sensor_type;location;lat;lon;timestamp;P1;durP1;ratioP1;P2;durP2;ratioP2
27491;SDS011;14927;51.210;6.838;2022-07-30T00:00:46;7.05;;;2.60;;
27491;SDS011;14927;51.210;6.838;2022-07-30T00:03:31;2.83;;;2.50;;
27491;SDS011;14927;51.210;6.838;2022-07-30T00:06:16;5.70;;;2.90;;
27491;SDS011;14927;51.210;6.838;2022-07-30T00:09:01;6.10;;;3.03;;
27491;SDS011;14927;51.210;6.838;2022-07-30T00:11:45;5.15;;;3.20;;
27491;SDS011;14927;51.210;6.838;2022-07-30T00:14:30;10.10;;;3.10;;
27491;SDS011;14927;51.210;6.838;2022-07-30T00:17:17;3.15;;;2.45;;
27491;SDS011;14927;51.210;6.838;2022-07-30T00:20:02;5.20;;;2.53;;
27491;SDS011;14927;51.210;6.838;2022-07-30T00:22:48;5.47;;;2.80;;
27491;SDS011;14927;51.210;6.838;2022-07-30T00:25:32;4.95;;;3.17;;
27491;SDS011;14927;51.210;6.838;2022-07-30T00:28:17;6.10;;;2.90;;
27491;SDS011;14927;51.210;6.838;2022-07-30T00:31:01;7.18;;;2.65;;
27491;SDS011;14927;51.210;6.838;2022-07-30T00:33:46;7.47;;;3.15;;
27491;SDS011;14927;51.210;6.838;2022-07-30T00:36:31;8.63;;;3.05;;
27491;SDS011;14927;51.210;6.838;2022-07-30T00:39:15;4.45;;;3.00;;
27491;SDS011;14927;51.210;6.838;2022-07-30T00:42:01;4.78;;;2.88;;
27491;SDS011;14927;51.210;6.838;2022-07-30T00:44:47;7.63;;;3.08;;
27491;SDS011;14927;51.210;6.838;2022-07-30T00:47:31;5.00;;;2.85;;
27491;SDS011;14927;51.210;6.838;2022-07-30T00:50:16;6.70;;;2.50;;
27491;SDS011;14927;51.210;6.838;2022-07-30T00:53:00;10.15;;;3.42;;
27491;SDS011;14927;51.210;6.838;2022-07-30T00:55:45;5.82;;;3.40;;
27491;SDS011;14927;51.210;6.838;2022-07-30T00:58:29;5.00;;;2.95;;
27491;SDS011;14927;51.210;6.838;2022-07-30T01:01:14;4.13;;;2.92;;
27491;SDS011;14927;51.210;6.838;2022-07-30T01:03:59;7.15;;;3.17;;
27491;SDS011;14927;51.210;6.838;2022-07-30T01:06:43;5.88;;;3.58;;
27491;SDS011;14927;51.210;6.838;2022-07-30T01:09:28;7.15;;;3.28;;
27491;SDS011;14927;51.210;6.838;2022-07-30T01:12:18;5.85;;;2.85;;
27491;SDS011;14927;51.210;6.838;2022-07-30T01:15:07;7.88;;;3.30;;
27491;SDS011;14927;51.210;6.838;2022-07-30T01:17:54;5.55;;;3.63;;
27491;SDS011;14927;51.210;6.838;2022-07-30T01:20:56;5.97;;;3.80;;
27491;SDS011;14927;51.210;6.838;2022-07-30T01:23:49;7.05;;;3.50;;
27491;SDS011;14927;51.210;6.838;2022-07-30T01:26:39;7.47;;;4.10;;
27491;SDS011;14927;51.210;6.838;2022-07-30T01:29:24;7.43;;;3.53;;
27491;SDS011;14927;51.210;6.838;2022-07-30T01:32:12;6.80;;;3.47;;
27491;SDS011;14927;51.210;6.838;2022-07-30T01:34:57;10.07;;;3.33;;
27491;SDS011;14927;51.210;6.838;2022-07-30T01:37:43;7.15;;;3.33;;
27491;SDS011;14927;51.210;6.838;2022-07-30T01:40:31;6.43;;;2.72;;
27491;SDS011;14927;51.210;6.838;2022-07-30T01:43:17;7.00;;;3.20;;
27491;SDS011;14927;51.210;6.838;2022-07-30T01:46:04;3.90;;;2.88;;
27491;SDS011;14927;51.210;6.838;2022-07-30T01:48:50;7.40;;;3.15;;
27491;SDS011;14927;51.210;6.838;2022-07-30T01:51:36;8.07;;;3.35;;
27491;SDS011;14927;51.210;6.838;2022-07-30T01:54:22;4.63;;;2.78;;
27491;SDS011;14927;51.210;6.838;2022-07-30T01:57:09;4.22;;;3.00;;
27491;SDS011;14927;51.210;6.838;2022-07-30T01:59:56;6.35;;;2.95;;
27491;SDS011;14927;51.210;6.838;2022-07-30T02:02:45;4.70;;;3.10;;
27491;SDS011;14927;51.210;6.838;2022-07-30T02:05:30;4.60;;;2.63;;
27491;SDS011;14927;51.210;6.838;2022-07-30T02:08:21;4.57;;;3.28;;
27491;SDS011;14927;51.210;6.838;2022-07-30T02:11:44;8.73;;;3.30;;
27491;SDS011;14927;51.210;6.838;2022-07-30T02:20:59;5.93;;;3.55;;
27491;SDS011;14927;51.210;6.838;2022-07-30T02:23:51;7.22;;;3.53;;
27491;SDS011;14927;51.210;6.838;2022-07-30T02:26:38;7.55;;;3.50;;
27491;SDS011;14927;51.210;6.838;2022-07-30T02:29:25;6.20;;;3.10;;
27491;SDS011;14927;51.210;6.838;2022-07-30T02:32:10;6.18;;;3.58;;
27491;SDS011;14927;51.210;6.838;2022-07-30T02:34:59;7.75;;;3.78;;
27491;SDS011;14927;51.210;6.838;2022-07-30T02:37:52;10.10;;;3.80;;
27491;SDS011;14927;51.210;6.838;2022-07-30T02:40:39;4.97;;;3.63;;
27491;SDS011;14927;51.210;6.838;2022-07-30T02:43:26;5.53;;;3.35;;
27491;SDS011;14927;51.210;6.838;2022-07-30T02:46:13;8.38;;;3.80;;
27491;SDS011;14927;51.210;6.838;2022-07-30T02:49:00;9.10;;;3.45;;
27491;SDS011;14927;51.210;6.838;2022-07-30T02:51:48;6.97;;;3.13;;
27491;SDS011;14927;51.210;6.838;2022-07-30T02:54:33;7.28;;;3.45;;
27491;SDS011;14927;51.210;6.838;2022-07-30T02:57:20;5.07;;;3.30;;
27491;SDS011;14927;51.210;6.838;2022-07-30T03:00:06;6.95;;;3.63;;
27491;SDS011;14927;51.210;6.838;2022-07-30T03:02:52;6.28;;;3.30;;
27491;SDS011;14927;51.210;6.838;2022-07-30T03:05:38;4.50;;;3.50;;
27491;SDS011;14927;51.210;6.838;2022-07-30T03:08:25;4.72;;;3.58;;
27491;SDS011;14927;51.210;6.838;2022-07-30T03:11:11;6.85;;;3.92;;
27491;SDS011;14927;51.210;6.838;2022-07-30T03:13:57;6.13;;;3.97;;
27491;SDS011;14927;51.210;6.838;2022-07-30T03:16:42;7.43;;;3.95;;
27491;SDS011;14927;51.210;6.838;2022-07-30T03:19:32;7.15;;;4.47;;
27491;SDS011;14927;51.210;6.838;2022-07-30T03:22:20;9.55;;;4.22;;
27491;SDS011;14927;51.210;6.838;2022-07-30T03:25:08;12.50;;;5.35;;
27491;SDS011;14927;51.210;6.838;2022-07-30T03:27:58;6.43;;;4.63;;
27491;SDS011;14927;51.210;6.838;2022-07-30T03:30:49;6.53;;;4.60;;
27491;SDS011;14927;51.210;6.838;2022-07-30T03:33:35;7.55;;;4.97;;
27491;SDS011;14927;51.210;6.838;2022-07-30T03:36:20;6.88;;;4.60;;
27491;SDS011;14927;51.210;6.838;2022-07-30T03:39:05;8.35;;;4.53;;
27491;SDS011;14927;51.210;6.838;2022-07-30T03:41:51;5.75;;;4.53;;
27491;SDS011;14927;51.210;6.838;2022-07-30T03:44:37;5.88;;;4.45;;
27491;SDS011;14927;51.210;6.838;2022-07-30T03:47:22;10.15;;;4.82;;
27491;SDS011;14927;51.210;6.838;2022-07-30T03:50:10;9.45;;;5.00;;
27491;SDS011;14927;51.210;6.838;2022-07-30T03:52:54;14.50;;;5.40;;
27491;SDS011;14927;51.210;6.838;2022-07-30T03:55:39;6.85;;;4.70;;
27491;SDS011;14927;51.210;6.838;2022-07-30T03:58:25;8.27;;;5.15;;
27491;SDS011;14927;51.210;6.838;2022-07-30T04:01:10;7.13;;;4.95;;
27491;SDS011;14927;51.210;6.838;2022-07-30T04:04:02;6.47;;;4.95;;
27491;SDS011;14927;51.210;6.838;2022-07-30T04:06:50;6.47;;;4.90;;
27491;SDS011;14927;51.210;6.838;2022-07-30T04:09:35;9.43;;;5.60;;
27491;SDS011;14927;51.210;6.838;2022-07-30T04:12:19;8.82;;;5.53;;
27491;SDS011;14927;51.210;6.838;2022-07-30T04:15:04;8.18;;;5.35;;
27491;SDS011;14927;51.210;6.838;2022-07-30T04:17:50;10.02;;;5.50;;
27491;SDS011;14927;51.210;6.838;2022-07-30T04:20:44;7.93;;;5.25;;
27491;SDS011;14927;51.210;6.838;2022-07-30T04:23:31;9.32;;;5.15;;
27491;SDS011;14927;51.210;6.838;2022-07-30T04:26:16;9.05;;;4.88;;
27491;SDS011;14927;51.210;6.838;2022-07-30T04:29:03;6.47;;;4.60;;
27491;SDS011;14927;51.210;6.838;2022-07-30T04:31:53;9.65;;;4.85;;
27491;SDS011;14927;51.210;6.838;2022-07-30T04:34:46;7.55;;;4.90;;
27491;SDS011;14927;51.210;6.838;2022-07-30T04:37:35;5.50;;;4.55;;
27491;SDS011;14927;51.210;6.838;2022-07-30T04:40:20;12.50;;;4.80;;
27491;SDS011;14927;51.210;6.838;2022-07-30T04:43:06;9.20;;;4.60;;
27491;SDS011;14927;51.210;6.838;2022-07-30T04:45:50;8.45;;;4.97;;
27491;SDS011;14927;51.210;6.838;2022-07-30T04:48:35;7.75;;;4.88;;
27491;SDS011;14927;51.210;6.838;2022-07-30T04:51:22;12.27;;;7.07;;
27491;SDS011;14927;51.210;6.838;2022-07-30T04:54:14;15.70;;;9.27;;
27491;SDS011;14927;51.210;6.838;2022-07-30T04:57:00;14.35;;;9.07;;
27491;SDS011;14927;51.210;6.838;2022-07-30T04:59:46;19.63;;;9.88;;
27491;SDS011;14927;51.210;6.838;2022-07-30T05:02:30;12.18;;;9.50;;
27491;SDS011;14927;51.210;6.838;2022-07-30T05:05:20;15.40;;;10.43;;
27491;SDS011;14927;51.210;6.838;2022-07-30T05:08:08;15.30;;;11.57;;
27491;SDS011;14927;51.210;6.838;2022-07-30T05:10:55;19.77;;;10.85;;
27491;SDS011;14927;51.210;6.838;2022-07-30T05:13:40;17.67;;;10.90;;
27491;SDS011;14927;51.210;6.838;2022-07-30T05:16:31;16.17;;;11.15;;
27491;SDS011;14927;51.210;6.838;2022-07-30T05:19:17;16.85;;;11.75;;
27491;SDS011;14927;51.210;6.838;2022-07-30T05:22:04;19.52;;;12.32;;
27491;SDS011;14927;51.210;6.838;2022-07-30T05:24:48;22.65;;;13.27;;
27491;SDS011;14927;51.210;6.838;2022-07-30T05:27:33;20.48;;;12.65;;
27491;SDS011;14927;51.210;6.838;2022-07-30T05:30:17;17.30;;;12.25;;
27491;SDS011;14927;51.210;6.838;2022-07-30T05:33:02;22.27;;;12.98;;
27491;SDS011;14927;51.210;6.838;2022-07-30T05:35:47;19.83;;;14.35;;
27491;SDS011;14927;51.210;6.838;2022-07-30T05:38:33;21.25;;;13.80;;
27491;SDS011;14927;51.210;6.838;2022-07-30T05:41:18;20.25;;;14.20;;
27491;SDS011;14927;51.210;6.838;2022-07-30T05:44:03;23.75;;;14.77;;
27491;SDS011;14927;51.210;6.838;2022-07-30T05:46:47;22.83;;;14.45;;
27491;SDS011;14927;51.210;6.838;2022-07-30T05:49:34;22.98;;;15.38;;
27491;SDS011;14927;51.210;6.838;2022-07-30T05:52:19;23.45;;;15.45;;
27491;SDS011;14927;51.210;6.838;2022-07-30T05:55:03;23.25;;;15.45;;
27491;SDS011;14927;51.210;6.838;2022-07-30T05:57:48;28.83;;;16.73;;
27491;SDS011;14927;51.210;6.838;2022-07-30T06:00:33;24.35;;;16.70;;
27491;SDS011;14927;51.210;6.838;2022-07-30T06:03:18;26.02;;;15.40;;
27491;SDS011;14927;51.210;6.838;2022-07-30T06:06:05;30.33;;;18.67;;
27491;SDS011;14927;51.210;6.838;2022-07-30T06:08:50;24.80;;;17.02;;
27491;SDS011;14927;51.210;6.838;2022-07-30T06:11:35;28.88;;;17.95;;
27491;SDS011;14927;51.210;6.838;2022-07-30T06:14:19;28.27;;;18.83;;
27491;SDS011;14927;51.210;6.838;2022-07-30T06:17:04;28.70;;;18.90;;
27491;SDS011;14927;51.210;6.838;2022-07-30T06:19:49;28.65;;;19.17;;
27491;SDS011;14927;51.210;6.838;2022-07-30T06:22:34;26.95;;;18.23;;
27491;SDS011;14927;51.210;6.838;2022-07-30T06:25:19;27.55;;;19.33;;
27491;SDS011;14927;51.210;6.838;2022-07-30T06:28:04;30.63;;;19.67;;
27491;SDS011;14927;51.210;6.838;2022-07-30T06:30:48;28.85;;;18.42;;
27491;SDS011;14927;51.210;6.838;2022-07-30T06:33:33;26.08;;;18.08;;
27491;SDS011;14927;51.210;6.838;2022-07-30T06:36:18;29.08;;;18.83;;
27491;SDS011;14927;51.210;6.838;2022-07-30T06:39:02;30.15;;;19.50;;
27491;SDS011;14927;51.210;6.838;2022-07-30T06:41:47;27.58;;;19.70;;
27491;SDS011;14927;51.210;6.838;2022-07-30T06:44:31;29.25;;;18.42;;
27491;SDS011;14927;51.210;6.838;2022-07-30T06:47:19;25.85;;;17.58;;
27491;SDS011;14927;51.210;6.838;2022-07-30T06:50:14;24.15;;;17.35;;
27491;SDS011;14927;51.210;6.838;2022-07-30T06:53:01;26.63;;;18.08;;
27491;SDS011;14927;51.210;6.838;2022-07-30T06:55:45;22.60;;;16.40;;
27491;SDS011;14927;51.210;6.838;2022-07-30T06:58:30;27.15;;;16.55;;
27491;SDS011;14927;51.210;6.838;2022-07-30T07:01:15;22.85;;;14.80;;
27491;SDS011;14927;51.210;6.838;2022-07-30T07:03:59;20.75;;;15.05;;
27491;SDS011;14927;51.210;6.838;2022-07-30T07:06:44;19.05;;;14.30;;
27491;SDS011;14927;51.210;6.838;2022-07-30T07:09:28;21.73;;;15.32;;
27491;SDS011;14927;51.210;6.838;2022-07-30T07:12:13;21.13;;;14.30;;
27491;SDS011;14927;51.210;6.838;2022-07-30T07:14:58;25.65;;;14.38;;
27491;SDS011;14927;51.210;6.838;2022-07-30T07:17:42;25.27;;;14.48;;
27491;SDS011;14927;51.210;6.838;2022-07-30T07:20:27;22.20;;;14.35;;
27491;SDS011;14927;51.210;6.838;2022-07-30T07:23:12;20.20;;;13.73;;
27491;SDS011;14927;51.210;6.838;2022-07-30T07:25:57;20.17;;;14.50;;
27491;SDS011;14927;51.210;6.838;2022-07-30T07:28:41;16.55;;;12.88;;
27491;SDS011;14927;51.210;6.838;2022-07-30T07:31:26;19.55;;;12.88;;
27491;SDS011;14927;51.210;6.838;2022-07-30T07:34:10;16.67;;;12.10;;
27491;SDS011;14927;51.210;6.838;2022-07-30T07:36:55;20.63;;;13.25;;
27491;SDS011;14927;51.210;6.838;2022-07-30T07:39:42;19.45;;;13.80;;
27491;SDS011;14927;51.210;6.838;2022-07-30T07:42:27;16.15;;;13.00;;
27491;SDS011;14927;51.210;6.838;2022-07-30T07:45:11;20.35;;;13.68;;
27491;SDS011;14927;51.210;6.838;2022-07-30T07:47:56;20.38;;;12.90;;
27491;SDS011;14927;51.210;6.838;2022-07-30T07:50:41;17.40;;;12.48;;
27491;SDS011;14927;51.210;6.838;2022-07-30T07:53:25;19.65;;;11.93;;
27491;SDS011;14927;51.210;6.838;2022-07-30T07:56:10;15.82;;;11.75;;
27491;SDS011;14927;51.210;6.838;2022-07-30T07:58:55;14.73;;;11.75;;
27491;SDS011;14927;51.210;6.838;2022-07-30T08:01:40;16.38;;;11.90;;
27491;SDS011;14927;51.210;6.838;2022-07-30T08:04:24;18.00;;;11.15;;
27491;SDS011;14927;51.210;6.838;2022-07-30T08:07:09;16.98;;;10.90;;
27491;SDS011;14927;51.210;6.838;2022-07-30T08:09:54;17.77;;;11.38;;
27491;SDS011;14927;51.210;6.838;2022-07-30T08:12:38;15.48;;;11.13;;
27491;SDS011;14927;51.210;6.838;2022-07-30T08:15:23;14.00;;;9.88;;
27491;SDS011;14927;51.210;6.838;2022-07-30T08:18:07;14.77;;;10.48;;
27491;SDS011;14927;51.210;6.838;2022-07-30T08:20:53;15.77;;;9.43;;
27491;SDS011;14927;51.210;6.838;2022-07-30T08:23:38;15.55;;;10.18;;
27491;SDS011;14927;51.210;6.838;2022-07-30T08:26:22;15.18;;;9.23;;
27491;SDS011;14927;51.210;6.838;2022-07-30T08:29:07;15.27;;;10.00;;
27491;SDS011;14927;51.210;6.838;2022-07-30T08:31:52;16.38;;;9.77;;
27491;SDS011;14927;51.210;6.838;2022-07-30T08:34:37;12.65;;;8.57;;
27491;SDS011;14927;51.210;6.838;2022-07-30T08:37:21;15.30;;;7.95;;
27491;SDS011;14927;51.210;6.838;2022-07-30T08:40:06;13.57;;;7.90;;
27491;SDS011;14927;51.210;6.838;2022-07-30T08:42:52;15.52;;;8.30;;
27491;SDS011;14927;51.210;6.838;2022-07-30T08:45:36;10.88;;;7.28;;
27491;SDS011;14927;51.210;6.838;2022-07-30T08:48:22;14.77;;;7.95;;
27491;SDS011;14927;51.210;6.838;2022-07-30T08:51:08;11.73;;;7.63;;
27491;SDS011;14927;51.210;6.838;2022-07-30T08:53:55;14.25;;;7.43;;
27491;SDS011;14927;51.210;6.838;2022-07-30T08:56:40;16.85;;;8.20;;
27491;SDS011;14927;51.210;6.838;2022-07-30T08:59:25;15.27;;;8.50;;
27491;SDS011;14927;51.210;6.838;2022-07-30T09:02:09;12.73;;;7.18;;
27491;SDS011;14927;51.210;6.838;2022-07-30T09:04:54;18.58;;;7.78;;
27491;SDS011;14927;51.210;6.838;2022-07-30T09:07:39;15.00;;;6.63;;
27491;SDS011;14927;51.210;6.838;2022-07-30T09:10:24;13.23;;;6.22;;
27491;SDS011;14927;51.210;6.838;2022-07-30T09:13:43;12.32;;;7.78;;
27491;SDS011;14927;51.210;6.838;2022-07-30T09:16:26;13.07;;;7.07;;
27491;SDS011;14927;51.210;6.838;2022-07-30T09:19:18;12.73;;;6.10;;
27491;SDS011;14927;51.210;6.838;2022-07-30T09:22:06;11.23;;;6.32;;
27491;SDS011;14927;51.210;6.838;2022-07-30T09:24:51;7.22;;;4.60;;
27491;SDS011;14927;51.210;6.838;2022-07-30T09:27:43;8.82;;;5.88;;
27491;SDS011;14927;51.210;6.838;2022-07-30T09:30:46;8.73;;;4.75;;
27491;SDS011;14927;51.210;6.838;2022-07-30T09:33:37;9.85;;;4.57;;
27491;SDS011;14927;51.210;6.838;2022-07-30T09:36:27;9.90;;;4.38;;
27491;SDS011;14927;51.210;6.838;2022-07-30T09:39:14;8.75;;;4.38;;
27491;SDS011;14927;51.210;6.838;2022-07-30T09:42:22;11.13;;;4.90;;
27491;SDS011;14927;51.210;6.838;2022-07-30T09:47:58;7.35;;;3.80;;
27491;SDS011;14927;51.210;6.838;2022-07-30T09:50:47;9.98;;;4.40;;
27491;SDS011;14927;51.210;6.838;2022-07-30T09:53:34;7.28;;;4.03;;
27491;SDS011;14927;51.210;6.838;2022-07-30T09:56:22;8.20;;;4.03;;
27491;SDS011;14927;51.210;6.838;2022-07-30T09:59:25;9.45;;;4.05;;
27491;SDS011;14927;51.210;6.838;2022-07-30T10:02:16;7.63;;;4.55;;
27491;SDS011;14927;51.210;6.838;2022-07-30T10:05:08;9.03;;;4.47;;
27491;SDS011;14927;51.210;6.838;2022-07-30T10:07:59;7.60;;;3.53;;
27491;SDS011;14927;51.210;6.838;2022-07-30T10:10:45;11.23;;;3.78;;
27491;SDS011;14927;51.210;6.838;2022-07-30T10:13:31;7.50;;;3.40;;
27491;SDS011;14927;51.210;6.838;2022-07-30T10:16:16;12.50;;;3.60;;
27491;SDS011;14927;51.210;6.838;2022-07-30T10:19:01;8.32;;;3.38;;
27491;SDS011;14927;51.210;6.838;2022-07-30T10:21:47;7.78;;;3.42;;
27491;SDS011;14927;51.210;6.838;2022-07-30T10:24:33;6.47;;;3.78;;
27491;SDS011;14927;51.210;6.838;2022-07-30T10:27:21;9.25;;;2.92;;
27491;SDS011;14927;51.210;6.838;2022-07-30T10:53:30;5.63;;;2.50;;
27491;SDS011;14927;51.210;6.838;2022-07-30T10:56:20;7.10;;;2.72;;
27491;SDS011;14927;51.210;6.838;2022-07-30T10:59:08;8.40;;;2.47;;
27491;SDS011;14927;51.210;6.838;2022-07-30T11:02:06;8.25;;;2.60;;
27491;SDS011;14927;51.210;6.838;2022-07-30T11:12:01;4.53;;;1.70;;
27491;SDS011;14927;51.210;6.838;2022-07-30T11:14:20;4.70;;;1.90;;
27491;SDS011;14927;51.210;6.838;2022-07-30T11:17:05;4.20;;;1.73;;
27491;SDS011;14927;51.210;6.838;2022-07-30T11:23:07;3.53;;;1.95;;
27491;SDS011;14927;51.210;6.838;2022-07-30T11:26:02;6.05;;;2.65;;
27491;SDS011;14927;51.210;6.838;2022-07-30T11:28:47;6.78;;;2.38;;
27491;SDS011;14927;51.210;6.838;2022-07-30T11:31:35;4.60;;;1.83;;
27491;SDS011;14927;51.210;6.838;2022-07-30T11:37:09;7.55;;;1.25;;
27491;SDS011;14927;51.210;6.838;2022-07-30T11:42:43;7.15;;;2.10;;
27491;SDS011;14927;51.210;6.838;2022-07-30T11:45:28;6.25;;;2.95;;
27491;SDS011;14927;51.210;6.838;2022-07-30T11:48:13;5.35;;;1.73;;
27491;SDS011;14927;51.210;6.838;2022-07-30T11:51:00;4.30;;;1.92;;
27491;SDS011;14927;51.210;6.838;2022-07-30T11:53:58;8.50;;;1.98;;
27491;SDS011;14927;51.210;6.838;2022-07-30T11:59:51;3.80;;;2.00;;
27491;SDS011;14927;51.210;6.838;2022-07-30T12:02:39;6.68;;;2.00;;
27491;SDS011;14927;51.210;6.838;2022-07-30T12:05:24;5.43;;;1.77;;
27491;SDS011;14927;51.210;6.838;2022-07-30T12:08:11;4.45;;;2.03;;
27491;SDS011;14927;51.210;6.838;2022-07-30T12:10:57;3.25;;;1.83;;
27491;SDS011;14927;51.210;6.838;2022-07-30T12:13:43;2.78;;;1.52;;
27491;SDS011;14927;51.210;6.838;2022-07-30T12:16:47;4.53;;;1.40;;
27491;SDS011;14927;51.210;6.838;2022-07-30T12:19:45;2.85;;;1.23;;
27491;SDS011;14927;51.210;6.838;2022-07-30T12:22:31;6.50;;;1.50;;
27491;SDS011;14927;51.210;6.838;2022-07-30T12:25:16;3.33;;;1.20;;
27491;SDS011;14927;51.210;6.838;2022-07-30T12:28:00;4.20;;;1.52;;
27491;SDS011;14927;51.210;6.838;2022-07-30T12:30:45;3.63;;;1.05;;
27491;SDS011;14927;51.210;6.838;2022-07-30T12:33:30;2.78;;;1.25;;
27491;SDS011;14927;51.210;6.838;2022-07-30T12:36:33;2.80;;;1.35;;
27491;SDS011;14927;51.210;6.838;2022-07-30T12:39:19;2.45;;;1.30;;
27491;SDS011;14927;51.210;6.838;2022-07-30T12:42:16;1.98;;;1.30;;
27491;SDS011;14927;51.210;6.838;2022-07-30T12:45:02;2.47;;;1.38;;
27491;SDS011;14927;51.210;6.838;2022-07-30T12:47:48;3.08;;;1.23;;
27491;SDS011;14927;51.210;6.838;2022-07-30T12:50:33;2.60;;;1.08;;
27491;SDS011;14927;51.210;6.838;2022-07-30T12:53:18;3.40;;;0.95;;
27491;SDS011;14927;51.210;6.838;2022-07-30T12:56:16;1.80;;;1.08;;
27491;SDS011;14927;51.210;6.838;2022-07-30T12:59:03;3.10;;;0.88;;
27491;SDS011;14927;51.210;6.838;2022-07-30T13:01:48;2.15;;;0.82;;
27491;SDS011;14927;51.210;6.838;2022-07-30T13:04:34;3.53;;;1.00;;
27491;SDS011;14927;51.210;6.838;2022-07-30T13:07:33;1.63;;;1.00;;
27491;SDS011;14927;51.210;6.838;2022-07-30T13:10:18;3.88;;;1.05;;
27491;SDS011;14927;51.210;6.838;2022-07-30T13:13:03;2.75;;;1.00;;
27491;SDS011;14927;51.210;6.838;2022-07-30T13:15:58;3.55;;;1.00;;
27491;SDS011;14927;51.210;6.838;2022-07-30T13:18:48;2.03;;;0.88;;
27491;SDS011;14927;51.210;6.838;2022-07-30T13:21:33;2.30;;;0.82;;
27491;SDS011;14927;51.210;6.838;2022-07-30T13:24:19;3.47;;;0.80;;
27491;SDS011;14927;51.210;6.838;2022-07-30T13:27:04;1.88;;;0.80;;
27491;SDS011;14927;51.210;6.838;2022-07-30T13:29:49;2.70;;;0.80;;
27491;SDS011;14927;51.210;6.838;2022-07-30T13:32:33;1.95;;;0.77;;
27491;SDS011;14927;51.210;6.838;2022-07-30T13:35:18;2.20;;;0.80;;
27491;SDS011;14927;51.210;6.838;2022-07-30T13:38:03;3.95;;;1.00;;
27491;SDS011;14927;51.210;6.838;2022-07-30T13:40:49;2.88;;;0.90;;
27491;SDS011;14927;51.210;6.838;2022-07-30T13:43:34;2.30;;;0.80;;
27491;SDS011;14927;51.210;6.838;2022-07-30T13:46:19;1.67;;;0.80;;
27491;SDS011;14927;51.210;6.838;2022-07-30T13:49:04;11.55;;;1.40;;
27491;SDS011;14927;51.210;6.838;2022-07-30T13:51:48;1.55;;;0.77;;
27491;SDS011;14927;51.210;6.838;2022-07-30T13:54:33;1.33;;;0.60;;
27491;SDS011;14927;51.210;6.838;2022-07-30T13:57:18;3.10;;;0.70;;
27491;SDS011;14927;51.210;6.838;2022-07-30T14:00:06;1.85;;;0.60;;
27491;SDS011;14927;51.210;6.838;2022-07-30T14:05:37;1.73;;;0.80;;
27491;SDS011;14927;51.210;6.838;2022-07-30T14:08:22;2.65;;;0.60;;
27491;SDS011;14927;51.210;6.838;2022-07-30T14:11:07;2.20;;;0.90;;
27491;SDS011;14927;51.210;6.838;2022-07-30T14:13:52;5.13;;;1.13;;
27491;SDS011;14927;51.210;6.838;2022-07-30T14:16:36;4.45;;;1.00;;
27491;SDS011;14927;51.210;6.838;2022-07-30T14:19:21;3.95;;;0.60;;
27491;SDS011;14927;51.210;6.838;2022-07-30T14:22:06;1.17;;;0.65;;
27491;SDS011;14927;51.210;6.838;2022-07-30T14:24:50;1.00;;;0.52;;
27491;SDS011;14927;51.210;6.838;2022-07-30T14:27:36;2.38;;;0.90;;
27491;SDS011;14927;51.210;6.838;2022-07-30T14:30:21;1.10;;;0.60;;
27491;SDS011;14927;51.210;6.838;2022-07-30T14:33:07;2.65;;;1.20;;
27491;SDS011;14927;51.210;6.838;2022-07-30T14:35:52;3.22;;;0.80;;
27491;SDS011;14927;51.210;6.838;2022-07-30T14:38:37;2.10;;;0.70;;
27491;SDS011;14927;51.210;6.838;2022-07-30T14:41:22;4.60;;;1.05;;
27491;SDS011;14927;51.210;6.838;2022-07-30T14:44:08;2.72;;;0.80;;
27491;SDS011;14927;51.210;6.838;2022-07-30T14:46:54;1.63;;;0.68;;
27491;SDS011;14927;51.210;6.838;2022-07-30T14:49:39;2.20;;;0.95;;
27491;SDS011;14927;51.210;6.838;2022-07-30T14:52:24;2.67;;;0.73;;
27491;SDS011;14927;51.210;6.838;2022-07-30T14:55:08;3.65;;;0.60;;
27491;SDS011;14927;51.210;6.838;2022-07-30T14:57:53;2.05;;;0.70;;
27491;SDS011;14927;51.210;6.838;2022-07-30T15:00:37;3.20;;;0.95;;
27491;SDS011;14927;51.210;6.838;2022-07-30T15:03:22;3.55;;;1.05;;
27491;SDS011;14927;51.210;6.838;2022-07-30T15:06:07;2.50;;;0.70;;
27491;SDS011;14927;51.210;6.838;2022-07-30T15:08:54;2.50;;;0.70;;
27491;SDS011;14927;51.210;6.838;2022-07-30T15:11:39;2.25;;;0.57;;
27491;SDS011;14927;51.210;6.838;2022-07-30T15:14:23;1.33;;;0.60;;
27491;SDS011;14927;51.210;6.838;2022-07-30T15:17:09;3.17;;;0.90;;
27491;SDS011;14927;51.210;6.838;2022-07-30T15:19:54;1.45;;;0.70;;
27491;SDS011;14927;51.210;6.838;2022-07-30T15:22:38;3.42;;;0.85;;
27491;SDS011;14927;51.210;6.838;2022-07-30T15:25:23;2.13;;;0.82;;
27491;SDS011;14927;51.210;6.838;2022-07-30T15:28:08;1.40;;;0.82;;
27491;SDS011;14927;51.210;6.838;2022-07-30T15:30:52;1.15;;;0.60;;
27491;SDS011;14927;51.210;6.838;2022-07-30T15:33:38;1.85;;;0.85;;
27491;SDS011;14927;51.210;6.838;2022-07-30T15:36:27;1.40;;;0.75;;
27491;SDS011;14927;51.210;6.838;2022-07-30T15:39:12;2.03;;;1.17;;
27491;SDS011;14927;51.210;6.838;2022-07-30T15:41:57;2.67;;;0.77;;
27491;SDS011;14927;51.210;6.838;2022-07-30T15:44:43;4.47;;;0.80;;
27491;SDS011;14927;51.210;6.838;2022-07-30T15:47:28;3.55;;;0.80;;
27491;SDS011;14927;51.210;6.838;2022-07-30T15:50:13;1.73;;;0.90;;
27491;SDS011;14927;51.210;6.838;2022-07-30T15:52:59;1.70;;;0.90;;
27491;SDS011;14927;51.210;6.838;2022-07-30T15:55:46;2.88;;;1.10;;
27491;SDS011;14927;51.210;6.838;2022-07-30T15:58:30;4.00;;;1.30;;
27491;SDS011;14927;51.210;6.838;2022-07-30T16:01:15;3.50;;;0.70;;
27491;SDS011;14927;51.210;6.838;2022-07-30T16:04:00;2.47;;;0.60;;
27491;SDS011;14927;51.210;6.838;2022-07-30T16:06:44;2.10;;;0.70;;
27491;SDS011;14927;51.210;6.838;2022-07-30T16:09:29;1.30;;;0.57;;
27491;SDS011;14927;51.210;6.838;2022-07-30T16:12:13;2.33;;;0.77;;
27491;SDS011;14927;51.210;6.838;2022-07-30T16:14:58;4.82;;;0.75;;
27491;SDS011;14927;51.210;6.838;2022-07-30T16:17:43;6.45;;;1.20;;
27491;SDS011;14927;51.210;6.838;2022-07-30T16:20:29;1.13;;;0.90;;
27491;SDS011;14927;51.210;6.838;2022-07-30T16:23:14;2.28;;;0.93;;
27491;SDS011;14927;51.210;6.838;2022-07-30T16:25:59;3.85;;;1.13;;
27491;SDS011;14927;51.210;6.838;2022-07-30T16:28:44;1.98;;;0.90;;
27491;SDS011;14927;51.210;6.838;2022-07-30T16:31:28;4.50;;;1.00;;
27491;SDS011;14927;51.210;6.838;2022-07-30T16:34:14;1.67;;;0.68;;
27491;SDS011;14927;51.210;6.838;2022-07-30T16:36:59;6.28;;;0.77;;
27491;SDS011;14927;51.210;6.838;2022-07-30T16:39:44;5.65;;;0.98;;
27491;SDS011;14927;51.210;6.838;2022-07-30T16:42:29;4.13;;;1.45;;
27491;SDS011;14927;51.210;6.838;2022-07-30T16:45:13;4.22;;;0.98;;
27491;SDS011;14927;51.210;6.838;2022-07-30T16:47:58;3.67;;;1.20;;
27491;SDS011;14927;51.210;6.838;2022-07-30T16:50:43;1.70;;;0.77;;
27491;SDS011;14927;51.210;6.838;2022-07-30T16:53:28;2.88;;;0.90;;
27491;SDS011;14927;51.210;6.838;2022-07-30T16:56:13;2.30;;;0.88;;
27491;SDS011;14927;51.210;6.838;2022-07-30T16:58:59;2.03;;;1.10;;
27491;SDS011;14927;51.210;6.838;2022-07-30T17:01:43;2.13;;;0.77;;
27491;SDS011;14927;51.210;6.838;2022-07-30T17:04:28;2.65;;;1.17;;
27491;SDS011;14927;51.210;6.838;2022-07-30T17:07:13;1.92;;;1.00;;
27491;SDS011;14927;51.210;6.838;2022-07-30T17:09:58;7.43;;;0.93;;
27491;SDS011;14927;51.210;6.838;2022-07-30T17:12:43;1.10;;;0.90;;
27491;SDS011;14927;51.210;6.838;2022-07-30T17:15:27;3.88;;;0.90;;
27491;SDS011;14927;51.210;6.838;2022-07-30T17:18:12;3.53;;;1.25;;
27491;SDS011;14927;51.210;6.838;2022-07-30T17:20:57;2.80;;;1.42;;
27491;SDS011;14927;51.210;6.838;2022-07-30T17:23:41;3.15;;;1.25;;
27491;SDS011;14927;51.210;6.838;2022-07-30T17:26:27;3.63;;;1.38;;
27491;SDS011;14927;51.210;6.838;2022-07-30T17:29:12;2.92;;;1.17;;